In Rescue
 
Open Full Screen Window  High Contrast Mode
Wind Gusting 22 knots
14
March 01, 2024 3:42 PM CST
Weather Information
Wind Direction
  200 °
Wind Speed
  14 kt (16 mph)
Wind Gust
  22 kt (25 mph)
Altimeter
29.82 in
Visibility
10 SM
Temperature
14° C
57° F
Dewpoint
-01° C
30° F
Humidity
36%
Sky Condition
Clear
VFR

METAR KRGK 012142Z AUTO 20014G22KT 10SM CLR 14/M01 A2982 RMK AO2

FAA Disclaimer: The data displayed is for advisory purposes only and is not to be used for flight planning or operations.